Time;durP1;ratioP1;P1;durP2;ratioP2;P2;SDS_P1;SDS_P2;PMS_P1;PMS_P2;Temp;Humidity;BMP_temperature;BMP_pressure;BME280_temperature;BME280_humidity;BME280_pressure;Samples;Min_cycle;Max_cycle;Signal;HPM_P1;HPM_P2
2021/06/28 00:02:04;;;;;;;2.17;1.90;;;;;;;;;;5119342;28;20243;-65
2021/06/28 00:04:32;;;;;;;2.60;2.23;;;;;;;;;;5118937;28;20712;-65
2021/06/28 00:07:00;;;;;;;2.63;2.00;;;;;;;;;;5118877;28;20201;-65
2021/06/28 00:09:28;;;;;;;2.43;2.10;;;;;;;;;;5118307;28;20298;-65
2021/06/28 00:11:55;;;;;;;2.90;2.70;;;;;;;;;;5112466;28;20226;-66
2021/06/28 00:14:24;;;;;;;2.27;2.00;;;;;;;;;;5114847;28;20202;-66
2021/06/28 00:16:52;;;;;;;2.23;2.03;;;;;;;;;;5114061;28;20649;-66
2021/06/28 00:19:20;;;;;;;4.47;2.10;;;;;;;;;;5118367;28;20212;-67
2021/06/28 00:21:48;;;;;;;1.90;1.80;;;;;;;;;;5118229;28;20223;-66
2021/06/28 00:24:15;;;;;;;2.40;2.23;;;;;;;;;;5118585;28;20209;-66
2021/06/28 00:26:43;;;;;;;2.20;2.10;;;;;;;;;;5118709;28;20205;-66
2021/06/28 00:29:11;;;;;;;2.50;2.00;;;;;;;;;;5118728;28;20209;-67
2021/06/28 00:31:40;;;;;;;4.07;2.30;;;;;;;;;;5118237;28;20259;-67
2021/06/28 00:34:07;;;;;;;2.43;2.00;;;;;;;;;;5118411;28;20213;-67
2021/06/28 00:36:35;;;;;;;2.57;2.00;;;;;;;;;;5117835;28;20237;-68
2021/06/28 00:39:03;;;;;;;3.57;2.10;;;;;;;;;;5118620;28;20201;-67
2021/06/28 00:41:31;;;;;;;3.33;2.17;;;;;;;;;;5118382;28;20289;-68
2021/06/28 00:43:59;;;;;;;2.30;2.10;;;;;;;;;;5118487;28;20212;-67
2021/06/28 00:46:26;;;;;;;2.37;2.13;;;;;;;;;;5110638;28;20201;-67
2021/06/28 00:48:56;;;;;;;2.37;2.17;;;;;;;;;;5118093;28;20205;-67
2021/06/28 00:51:24;;;;;;;2.63;2.43;;;;;;;;;;5117730;28;20221;-67
2021/06/28 00:53:52;;;;;;;2.20;2.10;;;;;;;;;;5117432;28;20718;-67
2021/06/28 00:56:20;;;;;;;1.87;1.73;;;;;;;;;;5117709;28;20204;-67
2021/06/28 00:58:48;;;;;;;4.40;2.73;;;;;;;;;;5117775;28;20644;-67
2021/06/28 01:01:16;;;;;;;2.53;1.87;;;;;;;;;;5117603;28;20679;-67
2021/06/28 01:03:44;;;;;;;2.00;1.90;;;;;;;;;;5118139;28;20599;-67
2021/06/28 01:06:14;;;;;;;3.43;2.20;;;;;;;;;;5117672;28;20205;-67
2021/06/28 01:08:42;;;;;;;2.17;2.03;;;;;;;;;;5117561;28;20645;-66
2021/06/28 01:11:10;;;;;;;2.63;2.27;;;;;;;;;;5106092;28;20227;-66
2021/06/28 01:13:40;;;;;;;2.50;2.30;;;;;;;;;;5108248;28;20221;-66
2021/06/28 01:16:08;;;;;;;2.67;2.10;;;;;;;;;;5117546;28;20205;-66
2021/06/28 01:18:36;;;;;;;4.00;2.33;;;;;;;;;;5117284;28;20206;-66
2021/06/28 01:21:06;;;;;;;3.20;2.00;;;;;;;;;;5117217;28;20209;-67
2021/06/28 01:23:35;;;;;;;2.90;1.90;;;;;;;;;;5116619;28;20646;-66
2021/06/28 01:26:04;;;;;;;3.23;2.20;;;;;;;;;;5117315;28;20258;-67
2021/06/28 01:28:32;;;;;;;3.63;2.50;;;;;;;;;;5117211;28;20207;-67
2021/06/28 01:31:00;;;;;;;2.53;1.97;;;;;;;;;;5117005;28;20212;-65
2021/06/28 01:33:29;;;;;;;3.83;1.93;;;;;;;;;;5117277;28;20625;-67
2021/06/28 01:35:57;;;;;;;1.87;1.77;;;;;;;;;;5116870;28;20201;-67
2021/06/28 01:38:24;;;;;;;3.67;2.27;;;;;;;;;;5116178;28;20206;-67
2021/06/28 01:40:54;;;;;;;5.13;1.97;;;;;;;;;;5117307;28;20624;-67
2021/06/28 01:43:23;;;;;;;3.23;2.00;;;;;;;;;;5117072;28;20212;-67
2021/06/28 01:45:51;;;;;;;2.27;1.70;;;;;;;;;;5117328;28;20234;-67
2021/06/28 01:48:19;;;;;;;2.00;1.77;;;;;;;;;;5117090;28;20206;-67
2021/06/28 01:50:47;;;;;;;1.97;1.87;;;;;;;;;;5117126;28;20233;-67
2021/06/28 01:53:15;;;;;;;1.70;1.60;;;;;;;;;;5117048;28;20600;-67
2021/06/28 01:55:43;;;;;;;2.43;2.03;;;;;;;;;;5117758;28;20658;-67
2021/06/28 01:58:14;;;;;;;2.70;2.33;;;;;;;;;;5117308;28;20675;-67
2021/06/28 02:00:43;;;;;;;2.43;1.90;;;;;;;;;;5117128;28;20265;-66
2021/06/28 02:03:12;;;;;;;2.53;1.67;;;;;;;;;;5117146;28;20224;-66
2021/06/28 02:05:40;;;;;;;2.33;1.90;;;;;;;;;;5116923;28;20568;-66
2021/06/28 02:08:09;;;;;;;3.47;2.00;;;;;;;;;;5116580;28;20628;-66
2021/06/28 02:10:38;;;;;;;3.93;1.90;;;;;;;;;;5117247;28;20607;-66
2021/06/28 02:13:06;;;;;;;2.10;1.90;;;;;;;;;;5108641;28;20686;-66
2021/06/28 02:15:35;;;;;;;2.13;1.80;;;;;;;;;;5116994;28;20205;-66
2021/06/28 02:18:03;;;;;;;3.40;2.00;;;;;;;;;;5117172;28;20814;-66
2021/06/28 02:20:31;;;;;;;2.07;1.90;;;;;;;;;;5116914;28;20202;-66
2021/06/28 02:23:08;;;;;;;2.67;2.30;;;;;;;;;;5116513;28;20702;-66
2021/06/28 02:25:36;;;;;;;1.80;1.70;;;;;;;;;;5116913;28;20294;-66
2021/06/28 02:28:04;;;;;;;2.60;1.70;;;;;;;;;;5116521;28;20230;-66
2021/06/28 02:30:32;;;;;;;2.20;2.00;;;;;;;;;;5117160;28;20230;-66
2021/06/28 02:33:01;;;;;;;1.93;1.50;;;;;;;;;;5117270;28;20234;-66
2021/06/28 02:35:28;;;;;;;1.70;1.60;;;;;;;;;;5121081;28;20212;-66
2021/06/28 02:37:56;;;;;;;2.67;2.13;;;;;;;;;;5120640;28;20239;-66
2021/06/28 02:40:24;;;;;;;2.57;1.97;;;;;;;;;;5121471;28;20204;-66
2021/06/28 02:42:51;;;;;;;2.00;1.80;;;;;;;;;;5121555;28;20227;-66
2021/06/28 02:45:19;;;;;;;1.93;1.77;;;;;;;;;;5121171;28;20207;-66
2021/06/28 02:47:47;;;;;;;3.27;1.90;;;;;;;;;;5121414;28;20831;-66
2021/06/28 02:50:16;;;;;;;3.37;2.40;;;;;;;;;;5121336;28;20666;-66
2021/06/28 02:52:44;;;;;;;2.43;2.23;;;;;;;;;;5120938;28;20231;-66
2021/06/28 02:55:12;;;;;;;2.30;2.10;;;;;;;;;;5121219;28;20231;-66
2021/06/28 02:57:40;;;;;;;1.80;1.70;;;;;;;;;;5120719;28;20250;-66
2021/06/28 03:00:09;;;;;;;2.20;2.10;;;;;;;;;;5120666;28;20220;-66
2021/06/28 03:02:37;;;;;;;2.00;1.80;;;;;;;;;;5120396;28;20281;-66
2021/06/28 03:05:05;;;;;;;2.20;1.93;;;;;;;;;;5120511;28;20562;-66
2021/06/28 03:07:35;;;;;;;2.03;1.70;;;;;;;;;;5120311;28;20223;-68
2021/06/28 03:10:03;;;;;;;2.00;1.80;;;;;;;;;;5120573;28;20568;-66
2021/06/28 03:12:31;;;;;;;1.97;1.87;;;;;;;;;;5112089;28;20224;-66
2021/06/28 03:14:59;;;;;;;2.10;1.70;;;;;;;;;;5120907;28;20319;-66
2021/06/28 03:17:26;;;;;;;1.97;1.80;;;;;;;;;;5120808;28;20207;-66
2021/06/28 03:19:54;;;;;;;3.43;2.63;;;;;;;;;;5121027;28;20201;-66
2021/06/28 03:22:22;;;;;;;2.03;1.80;;;;;;;;;;5120077;28;20627;-66
2021/06/28 03:24:51;;;;;;;2.53;1.97;;;;;;;;;;5120326;28;20673;-64
2021/06/28 03:27:19;;;;;;;4.10;2.10;;;;;;;;;;5119539;28;20249;-64
2021/06/28 03:29:47;;;;;;;2.80;1.80;;;;;;;;;;5119311;28;20208;-64
2021/06/28 03:32:19;;;;;;;1.90;1.80;;;;;;;;;;5119290;28;20338;-64
2021/06/28 03:34:47;;;;;;;2.63;2.27;;;;;;;;;;5119547;28;21136;-64
2021/06/28 03:37:14;;;;;;;3.73;1.77;;;;;;;;;;5118928;28;20243;-63
2021/06/28 03:39:42;;;;;;;6.40;1.80;;;;;;;;;;5119419;28;20207;-63
2021/06/28 03:42:11;;;;;;;3.67;2.07;;;;;;;;;;5119525;28;20226;-63
2021/06/28 03:44:40;;;;;;;3.67;2.17;;;;;;;;;;5119778;28;20236;-62
2021/06/28 03:47:08;;;;;;;4.93;2.17;;;;;;;;;;5119341;28;20204;-62
2021/06/28 03:49:35;;;;;;;2.63;1.73;;;;;;;;;;5119811;28;20289;-64
2021/06/28 03:52:04;;;;;;;3.77;2.30;;;;;;;;;;5119594;28;20313;-65
2021/06/28 03:54:31;;;;;;;1.97;1.87;;;;;;;;;;5119343;28;20226;-64
2021/06/28 03:57:00;;;;;;;2.87;2.10;;;;;;;;;;5119305;28;20734;-62
2021/06/28 03:59:29;;;;;;;2.53;2.07;;;;;;;;;;5119319;28;20804;-64
2021/06/28 04:01:57;;;;;;;1.90;1.80;;;;;;;;;;5105480;28;20223;-63
2021/06/28 04:04:26;;;;;;;1.90;1.80;;;;;;;;;;5118752;28;20206;-62
2021/06/28 04:06:54;;;;;;;1.70;1.60;;;;;;;;;;5118807;28;20210;-63
2021/06/28 04:09:21;;;;;;;2.60;2.13;;;;;;;;;;5118478;28;20238;-63
2021/06/28 04:11:49;;;;;;;1.43;1.43;;;;;;;;;;5118553;28;20253;-63
2021/06/28 04:14:17;;;;;;;1.90;1.70;;;;;;;;;;5119061;28;20242;-64
2021/06/28 04:16:46;;;;;;;1.90;1.53;;;;;;;;;;5119317;28;20206;-64
2021/06/28 04:19:17;;;;;;;2.17;1.97;;;;;;;;;;5119157;28;20694;-64
2021/06/28 04:21:44;;;;;;;2.17;1.53;;;;;;;;;;5118874;28;20582;-64
2021/06/28 04:24:12;;;;;;;3.17;1.63;;;;;;;;;;5118462;28;20237;-63
2021/06/28 04:26:40;;;;;;;1.77;1.63;;;;;;;;;;5118156;28;20210;-64
2021/06/28 04:29:08;;;;;;;4.23;2.10;;;;;;;;;;5118355;28;20211;-63
2021/06/28 04:31:37;;;;;;;3.03;1.50;;;;;;;;;;5117694;28;20227;-64
2021/06/28 04:34:08;;;;;;;2.73;1.50;;;;;;;;;;5117951;28;20312;-64
2021/06/28 04:36:35;;;;;;;1.63;1.53;;;;;;;;;;5117578;28;20246;-64
2021/06/28 04:39:03;;;;;;;3.43;1.53;;;;;;;;;;5117871;28;20345;-64
2021/06/28 04:41:31;;;;;;;2.80;2.10;;;;;;;;;;5117769;28;20310;-64
2021/06/28 04:44:00;;;;;;;2.33;1.73;;;;;;;;;;5117621;28;20210;-64
2021/06/28 04:46:28;;;;;;;6.93;2.23;;;;;;;;;;5117660;28;20207;-63
2021/06/28 04:48:55;;;;;;;3.27;1.67;;;;;;;;;;5118605;28;20214;-63
2021/06/28 04:51:26;;;;;;;2.77;1.80;;;;;;;;;;5118117;28;20691;-63
2021/06/28 04:53:53;;;;;;;4.30;1.83;;;;;;;;;;5117918;28;20284;-63
2021/06/28 04:56:21;;;;;;;4.47;2.13;;;;;;;;;;5118115;28;20202;-63
2021/06/28 04:58:49;;;;;;;2.00;1.87;;;;;;;;;;5118051;28;20263;-63
2021/06/28 05:01:17;;;;;;;3.93;1.87;;;;;;;;;;5118115;28;20271;-63
2021/06/28 05:03:44;;;;;;;3.03;2.03;;;;;;;;;;5118719;28;20203;-65
2021/06/28 05:06:12;;;;;;;1.93;1.70;;;;;;;;;;5118496;28;20210;-64
2021/06/28 05:08:41;;;;;;;2.47;1.73;;;;;;;;;;5118786;28;20216;-63
2021/06/28 05:11:09;;;;;;;1.77;1.67;;;;;;;;;;5118727;28;20206;-64
2021/06/28 05:13:36;;;;;;;1.63;1.30;;;;;;;;;;5109963;28;20274;-64
2021/06/28 05:16:04;;;;;;;2.80;1.87;;;;;;;;;;5118423;28;20255;-63
2021/06/28 05:18:34;;;;;;;1.90;1.80;;;;;;;;;;5118376;28;20239;-63
2021/06/28 05:21:02;;;;;;;4.63;2.10;;;;;;;;;;5114057;28;20257;-64
2021/06/28 05:23:29;;;;;;;1.63;1.40;;;;;;;;;;5117621;28;20213;-64
2021/06/28 05:25:59;;;;;;;3.83;2.07;;;;;;;;;;5117870;28;20224;-64
2021/06/28 05:28:26;;;;;;;2.30;1.30;;;;;;;;;;5117506;28;20207;-64
2021/06/28 05:30:54;;;;;;;1.90;1.07;;;;;;;;;;5117943;28;20775;-64
2021/06/28 05:33:22;;;;;;;1.83;1.30;;;;;;;;;;5117812;28;20219;-64
2021/06/28 05:35:49;;;;;;;0.90;0.90;;;;;;;;;;5117476;28;20232;-64
2021/06/28 05:38:17;;;;;;;1.00;1.00;;;;;;;;;;5117204;28;20217;-64
2021/06/28 05:40:45;;;;;;;2.47;1.10;;;;;;;;;;5117097;28;20273;-64
2021/06/28 05:43:14;;;;;;;2.30;1.17;;;;;;;;;;5117500;28;20692;-64
2021/06/28 05:45:41;;;;;;;4.50;1.57;;;;;;;;;;5117661;28;20560;-64
2021/06/28 05:48:09;;;;;;;1.30;1.00;;;;;;;;;;5117278;28;20210;-64
2021/06/28 05:50:37;;;;;;;3.80;0.70;;;;;;;;;;5118100;28;20258;-64
2021/06/28 05:53:06;;;;;;;1.27;1.17;;;;;;;;;;5117528;28;20283;-63
2021/06/28 05:55:34;;;;;;;3.63;1.00;;;;;;;;;;5118007;28;20275;-64
2021/06/28 05:58:02;;;;;;;4.50;1.40;;;;;;;;;;5117727;28;20210;-63
2021/06/28 06:00:31;;;;;;;4.00;1.70;;;;;;;;;;5115267;28;20204;-64
2021/06/28 06:03:00;;;;;;;4.27;1.30;;;;;;;;;;5115975;28;20669;-64
2021/06/28 06:05:28;;;;;;;1.43;1.10;;;;;;;;;;5117192;28;20221;-64
2021/06/28 06:07:57;;;;;;;1.30;1.20;;;;;;;;;;5116515;28;20232;-64
2021/06/28 06:10:25;;;;;;;2.57;1.27;;;;;;;;;;5120920;28;20236;-65
2021/06/28 06:12:53;;;;;;;2.33;1.00;;;;;;;;;;5110920;28;20277;-64
2021/06/28 06:15:20;;;;;;;2.50;1.30;;;;;;;;;;5120387;28;20225;-64
2021/06/28 06:17:49;;;;;;;1.40;1.30;;;;;;;;;;5120318;28;20205;-64
2021/06/28 06:20:19;;;;;;;1.73;1.37;;;;;;;;;;5116496;28;20261;-64
2021/06/28 06:22:48;;;;;;;1.43;1.33;;;;;;;;;;5120232;28;20226;-64
2021/06/28 06:25:16;;;;;;;3.43;1.40;;;;;;;;;;5120748;28;20202;-64
2021/06/28 06:27:44;;;;;;;4.97;1.60;;;;;;;;;;5120801;28;20204;-64
2021/06/28 06:30:12;;;;;;;7.93;1.90;;;;;;;;;;5120008;28;20201;-64
2021/06/28 06:32:47;;;;;;;3.63;1.80;;;;;;;;;;5120251;28;20233;-64
2021/06/28 06:35:16;;;;;;;4.93;1.93;;;;;;;;;;5119974;28;20230;-64
2021/06/28 06:37:44;;;;;;;3.40;1.50;;;;;;;;;;5113324;28;20303;-65
2021/06/28 06:40:12;;;;;;;1.47;1.37;;;;;;;;;;5111785;28;20602;-65
2021/06/28 06:42:40;;;;;;;3.23;1.67;;;;;;;;;;5111689;28;20275;-65
2021/06/28 06:45:08;;;;;;;2.10;1.90;;;;;;;;;;5109834;28;20195;-65
2021/06/28 06:47:36;;;;;;;2.87;1.80;;;;;;;;;;5111317;28;20218;-65
2021/06/28 06:50:04;;;;;;;2.60;1.97;;;;;;;;;;5110518;28;20258;-65
2021/06/28 06:52:33;;;;;;;5.53;1.50;;;;;;;;;;5112450;28;20224;-65
2021/06/28 06:55:02;;;;;;;2.70;1.80;;;;;;;;;;5113816;28;20255;-66
2021/06/28 06:57:30;;;;;;;2.23;1.60;;;;;;;;;;5114761;28;20205;-66
2021/06/28 06:59:58;;;;;;;5.17;1.73;;;;;;;;;;5120086;28;20208;-65
2021/06/28 07:02:27;;;;;;;2.23;1.60;;;;;;;;;;5120053;28;20228;-65
2021/06/28 07:04:55;;;;;;;3.60;1.67;;;;;;;;;;5120454;28;20205;-65
2021/06/28 07:07:24;;;;;;;1.53;1.43;;;;;;;;;;5120232;28;20209;-65
2021/06/28 07:09:54;;;;;;;1.77;1.67;;;;;;;;;;5120514;28;20201;-65
2021/06/28 07:12:22;;;;;;;1.60;1.50;;;;;;;;;;5112881;28;20213;-65
2021/06/28 07:14:54;;;;;;;3.07;1.30;;;;;;;;;;5115698;28;20245;-65
2021/06/28 07:17:22;;;;;;;3.33;1.50;;;;;;;;;;5120108;28;20247;-65
2021/06/28 07:19:49;;;;;;;1.47;1.37;;;;;;;;;;5119246;28;20249;-65
2021/06/28 07:22:17;;;;;;;1.97;1.30;;;;;;;;;;5119267;28;20353;-65
2021/06/28 07:24:45;;;;;;;1.80;1.50;;;;;;;;;;5119442;28;20205;-65
2021/06/28 07:27:14;;;;;;;1.27;1.17;;;;;;;;;;5119830;28;20656;-65
2021/06/28 07:29:42;;;;;;;4.97;1.57;;;;;;;;;;5119912;28;20205;-65
2021/06/28 07:32:12;;;;;;;3.87;1.50;;;;;;;;;;5119976;28;20229;-65
2021/06/28 07:34:40;;;;;;;3.23;1.70;;;;;;;;;;5119834;28;20204;-65
2021/06/28 07:37:08;;;;;;;4.30;1.67;;;;;;;;;;5119364;28;20233;-65
2021/06/28 07:39:35;;;;;;;5.53;2.40;;;;;;;;;;5119782;28;20209;-66
2021/06/28 07:42:03;;;;;;;3.70;1.63;;;;;;;;;;5119391;28;20224;-65
2021/06/28 07:44:32;;;;;;;2.23;1.60;;;;;;;;;;5119395;28;20201;-66
2021/06/28 07:47:00;;;;;;;2.83;1.60;;;;;;;;;;5119512;28;20258;-66
2021/06/28 07:49:28;;;;;;;2.00;1.60;;;;;;;;;;5118976;28;20213;-66
2021/06/28 07:51:56;;;;;;;2.43;1.50;;;;;;;;;;5118805;28;20286;-66
2021/06/28 07:54:24;;;;;;;1.70;1.40;;;;;;;;;;5105612;28;20651;-68
2021/06/28 07:56:52;;;;;;;1.60;1.50;;;;;;;;;;5117727;28;20221;-67
2021/06/28 07:59:20;;;;;;;5.73;1.83;;;;;;;;;;5109754;28;20245;-67
2021/06/28 08:01:49;;;;;;;1.73;1.60;;;;;;;;;;5109672;28;20213;-67
2021/06/28 08:04:17;;;;;;;2.93;1.73;;;;;;;;;;5111245;28;20228;-66
2021/06/28 08:06:45;;;;;;;1.90;1.60;;;;;;;;;;5112924;28;20201;-67
2021/06/28 08:09:13;;;;;;;1.50;1.40;;;;;;;;;;5108513;28;20197;-66
2021/06/28 08:11:41;;;;;;;1.97;1.57;;;;;;;;;;5109303;28;20221;-67
2021/06/28 08:14:09;;;;;;;3.53;1.73;;;;;;;;;;5112593;28;20193;-67
2021/06/28 08:16:37;;;;;;;1.37;1.30;;;;;;;;;;5117577;28;20722;-66
2021/06/28 08:19:07;;;;;;;5.20;2.20;;;;;;;;;;5108316;28;20201;-66
2021/06/28 08:21:35;;;;;;;3.77;1.80;;;;;;;;;;5109606;28;20228;-67
2021/06/28 08:24:04;;;;;;;9.87;2.87;;;;;;;;;;5109361;28;20207;-66
2021/06/28 08:26:32;;;;;;;2.23;1.10;;;;;;;;;;5110050;28;20200;-67
2021/06/28 08:29:02;;;;;;;2.30;1.40;;;;;;;;;;5110292;28;20193;-67
2021/06/28 08:31:30;;;;;;;2.47;1.20;;;;;;;;;;5105205;28;20247;-67
2021/06/28 08:34:12;;;;;;;2.87;1.53;;;;;;;;;;5103494;28;20198;-68
2021/06/28 08:36:40;;;;;;;3.87;1.17;;;;;;;;;;5100106;28;20257;-67
2021/06/28 08:39:08;;;;;;;1.50;1.40;;;;;;;;;;5103914;28;20255;-67
2021/06/28 08:41:36;;;;;;;3.13;1.13;;;;;;;;;;5098266;28;20252;-67
2021/06/28 08:44:04;;;;;;;1.63;1.20;;;;;;;;;;5101724;28;20202;-67
2021/06/28 08:46:32;;;;;;;305.77;36.77;;;;;;;;;;5108518;28;20197;-64
2021/06/28 08:49:00;;;;;;;2.63;1.80;;;;;;;;;;5100238;28;20206;-65
2021/06/28 08:51:30;;;;;;;2.70;1.57;;;;;;;;;;5106306;28;20228;-66
2021/06/28 08:54:04;;;;;;;1.57;1.30;;;;;;;;;;5112446;28;20684;-65
2021/06/28 08:56:32;;;;;;;1.60;1.40;;;;;;;;;;5117487;28;20616;-64
2021/06/28 08:59:00;;;;;;;3.20;1.90;;;;;;;;;;5117654;28;20239;-65
2021/06/28 09:01:27;;;;;;;1.70;1.40;;;;;;;;;;5112743;28;20278;-65
2021/06/28 09:03:55;;;;;;;2.50;1.23;;;;;;;;;;5111511;28;20209;-66
2021/06/28 09:06:24;;;;;;;2.90;1.13;;;;;;;;;;5111889;28;20227;-66
2021/06/28 09:08:56;;;;;;;1.80;1.50;;;;;;;;;;5116522;28;20608;-65
2021/06/28 09:11:24;;;;;;;3.13;2.00;;;;;;;;;;5117432;28;20221;-65
2021/06/28 09:13:53;;;;;;;1.93;1.60;;;;;;;;;;5117886;28;20196;-66
2021/06/28 09:16:22;;;;;;;2.83;1.47;;;;;;;;;;5117544;28;20254;-66
2021/06/28 09:18:54;;;;;;;2.43;1.40;;;;;;;;;;5117510;28;20250;-66
2021/06/28 09:21:26;;;;;;;7.27;1.50;;;;;;;;;;5117625;28;20684;-66
2021/06/28 09:23:56;;;;;;;3.27;1.50;;;;;;;;;;5117674;28;20262;-66
2021/06/28 09:26:28;;;;;;;2.20;1.30;;;;;;;;;;5117835;28;20204;-67
2021/06/28 09:28:55;;;;;;;1.77;1.63;;;;;;;;;;5117757;28;20201;-66
2021/06/28 09:31:34;;;;;;;1.47;1.30;;;;;;;;;;5117245;28;20221;-65
2021/06/28 09:34:21;;;;;;;2.00;1.67;;;;;;;;;;5117124;28;20288;-68
2021/06/28 09:36:50;;;;;;;2.37;1.67;;;;;;;;;;5116587;28;20255;-67
2021/06/28 09:39:21;;;;;;;1.50;1.40;;;;;;;;;;5116483;28;20231;-67
2021/06/28 09:41:48;;;;;;;1.50;1.40;;;;;;;;;;5116310;28;20226;-66
2021/06/28 09:44:16;;;;;;;1.87;1.60;;;;;;;;;;5115687;28;20207;-69
2021/06/28 09:46:44;;;;;;;1.60;1.50;;;;;;;;;;5115968;28;20201;-69
2021/06/28 09:49:15;;;;;;;2.93;2.07;;;;;;;;;;5115779;28;20251;-69
2021/06/28 09:51:43;;;;;;;2.13;2.03;;;;;;;;;;5115405;28;20270;-69
2021/06/28 09:54:21;;;;;;;1.40;1.30;;;;;;;;;;5115895;28;20253;-69
2021/06/28 09:56:52;;;;;;;2.27;1.43;;;;;;;;;;5116176;28;20257;-69
2021/06/28 09:59:27;;;;;;;1.53;1.43;;;;;;;;;;5115930;28;20262;-66
2021/06/28 10:02:10;;;;;;;2.43;1.67;;;;;;;;;;5116261;28;20250;-65
2021/06/28 10:04:41;;;;;;;3.03;1.90;;;;;;;;;;5115889;28;20228;-68
2021/06/28 10:07:16;;;;;;;2.40;1.80;;;;;;;;;;5116277;28;20197;-68
2021/06/28 10:09:45;;;;;;;2.77;2.07;;;;;;;;;;5117067;28;20195;-67
2021/06/28 10:12:18;;;;;;;2.20;1.80;;;;;;;;;;5116738;28;20244;-67
2021/06/28 10:14:45;;;;;;;2.43;1.87;;;;;;;;;;5116772;28;20227;-66
2021/06/28 10:17:13;;;;;;;4.00;1.93;;;;;;;;;;5116340;28;20221;-67
2021/06/28 10:19:42;;;;;;;3.23;2.07;;;;;;;;;;5116817;28;20254;-67
2021/06/28 10:22:10;;;;;;;4.33;2.10;;;;;;;;;;5115637;28;20251;-66
2021/06/28 10:24:38;;;;;;;2.60;2.10;;;;;;;;;;5116349;28;20197;-66
2021/06/28 10:27:07;;;;;;;4.80;1.90;;;;;;;;;;5116461;28;20201;-66
2021/06/28 10:29:36;;;;;;;2.17;1.80;;;;;;;;;;5116326;28;20285;-65
2021/06/28 10:32:05;;;;;;;1.67;1.57;;;;;;;;;;5116398;28;20226;-65
2021/06/28 10:34:34;;;;;;;5.17;2.20;;;;;;;;;;5116536;28;20204;-65
2021/06/28 10:37:03;;;;;;;2.70;1.80;;;;;;;;;;5115975;28;20232;-63
2021/06/28 10:39:32;;;;;;;1.80;1.67;;;;;;;;;;5116091;28;20204;-64
2021/06/28 10:42:04;;;;;;;2.10;1.63;;;;;;;;;;5116261;28;20223;-64
2021/06/28 10:44:47;;;;;;;3.00;2.20;;;;;;;;;;5116345;28;20551;-65
2021/06/28 10:47:15;;;;;;;2.43;1.70;;;;;;;;;;5116996;28;20212;-66
2021/06/28 10:49:43;;;;;;;3.03;2.43;;;;;;;;;;5116943;28;20201;-65
2021/06/28 10:52:11;;;;;;;4.23;2.73;;;;;;;;;;5116470;28;20574;-64
2021/06/28 10:54:39;;;;;;;4.20;2.40;;;;;;;;;;5116095;28;20618;-65
2021/06/28 10:57:11;;;;;;;4.03;2.67;;;;;;;;;;5119794;28;20202;-65
2021/06/28 10:59:42;;;;;;;3.63;2.30;;;;;;;;;;5120276;28;20569;-64
2021/06/28 11:02:12;;;;;;;2.83;2.57;;;;;;;;;;5120659;28;20222;-65
2021/06/28 11:04:41;;;;;;;3.40;2.47;;;;;;;;;;5120257;28;20225;-67
2021/06/28 11:07:10;;;;;;;5.53;2.67;;;;;;;;;;5119954;28;20201;-66
2021/06/28 11:09:39;;;;;;;3.13;2.60;;;;;;;;;;5120501;28;20202;-67
2021/06/28 11:12:09;;;;;;;4.27;2.90;;;;;;;;;;5120079;28;20290;-67
2021/06/28 11:14:38;;;;;;;3.67;2.93;;;;;;;;;;5119889;28;20254;-66
2021/06/28 11:17:07;;;;;;;2.93;2.70;;;;;;;;;;5119185;28;20212;-67
2021/06/28 11:19:51;;;;;;;3.50;2.67;;;;;;;;;;5119741;28;20221;-67
2021/06/28 11:22:37;;;;;;;3.07;2.77;;;;;;;;;;5115905;28;20220;-67
2021/06/28 11:25:06;;;;;;;3.00;2.80;;;;;;;;;;5119217;28;20726;-67
2021/06/28 11:27:34;;;;;;;3.20;2.90;;;;;;;;;;5118861;28;20201;-66
2021/06/28 11:30:02;;;;;;;7.10;3.00;;;;;;;;;;5118488;28;20222;-67
2021/06/28 11:32:31;;;;;;;5.77;2.97;;;;;;;;;;5118601;28;20226;-67
2021/06/28 11:34:59;;;;;;;6.00;2.80;;;;;;;;;;5119101;28;20212;-67
2021/06/28 11:37:31;;;;;;;3.73;3.30;;;;;;;;;;5118786;28;20255;-67
2021/06/28 11:40:01;;;;;;;3.47;3.17;;;;;;;;;;5118285;28;20201;-67
2021/06/28 11:42:32;;;;;;;3.43;2.77;;;;;;;;;;5118792;28;20241;-68
2021/06/28 11:45:15;;;;;;;3.77;3.33;;;;;;;;;;5117148;28;20201;-68
2021/06/28 11:47:57;;;;;;;4.87;3.60;;;;;;;;;;5118697;28;20208;-68
2021/06/28 11:50:30;;;;;;;8.53;3.37;;;;;;;;;;5118687;28;20232;-68
2021/06/28 11:52:59;;;;;;;5.40;3.20;;;;;;;;;;5118108;28;20570;-67
2021/06/28 11:55:28;;;;;;;6.07;3.30;;;;;;;;;;5118562;28;20201;-67
2021/06/28 11:57:57;;;;;;;8.20;3.90;;;;;;;;;;5117711;28;20227;-66
2021/06/28 12:00:45;;;;;;;4.27;3.70;;;;;;;;;;5118318;28;20295;-67
2021/06/28 12:03:14;;;;;;;4.00;3.17;;;;;;;;;;5118892;28;20254;-67
2021/06/28 12:05:42;;;;;;;6.07;3.63;;;;;;;;;;5119342;28;20216;-66
2021/06/28 12:08:10;;;;;;;5.37;3.60;;;;;;;;;;5117973;28;20254;-67
2021/06/28 12:10:40;;;;;;;5.13;3.00;;;;;;;;;;5118594;28;20208;-67
2021/06/28 12:13:09;;;;;;;6.90;3.60;;;;;;;;;;5118665;28;20221;-68
2021/06/28 12:15:37;;;;;;;3.70;3.37;;;;;;;;;;5118588;28;20196;-67
2021/06/28 12:18:05;;;;;;;3.73;3.20;;;;;;;;;;5118176;28;20648;-67
2021/06/28 12:20:38;;;;;;;3.93;3.30;;;;;;;;;;5116636;28;20553;-66
2021/06/28 12:23:15;;;;;;;3.40;3.10;;;;;;;;;;5116038;28;20220;-66
2021/06/28 12:25:44;;;;;;;5.50;3.63;;;;;;;;;;5117835;28;20204;-66
2021/06/28 12:28:11;;;;;;;5.17;3.70;;;;;;;;;;5117702;28;20201;-66
2021/06/28 12:30:39;;;;;;;5.87;3.50;;;;;;;;;;5118213;28;20223;-66
2021/06/28 12:33:08;;;;;;;4.00;3.60;;;;;;;;;;5118479;28;20225;-66
2021/06/28 12:35:36;;;;;;;3.50;3.00;;;;;;;;;;5118616;28;20200;-66
2021/06/28 12:38:06;;;;;;;4.17;3.70;;;;;;;;;;5117240;28;20228;-65
2021/06/28 12:40:36;;;;;;;4.70;4.23;;;;;;;;;;5118949;28;20200;-66
2021/06/28 12:43:13;;;;;;;6.57;4.30;;;;;;;;;;5118573;28;20221;-65
2021/06/28 12:45:42;;;;;;;10.57;3.70;;;;;;;;;;5118849;28;20257;-65
2021/06/28 12:48:15;;;;;;;6.80;4.23;;;;;;;;;;5118677;28;20625;-65
2021/06/28 12:50:42;;;;;;;6.33;4.30;;;;;;;;;;5118056;28;20197;-65
2021/06/28 12:53:15;;;;;;;5.30;3.97;;;;;;;;;;5118316;28;20270;-66
2021/06/28 12:55:43;;;;;;;4.70;4.20;;;;;;;;;;5118351;28;20560;-65
2021/06/28 12:58:15;;;;;;;3.90;3.60;;;;;;;;;;5117632;28;20200;-65
2021/06/28 13:00:44;;;;;;;5.83;3.70;;;;;;;;;;5118340;28;20200;-65
2021/06/28 13:03:13;;;;;;;5.27;3.57;;;;;;;;;;5118339;28;20217;-65
2021/06/28 13:05:42;;;;;;;4.50;4.10;;;;;;;;;;5118311;28;20201;-66
2021/06/28 13:08:10;;;;;;;6.37;4.53;;;;;;;;;;5117341;28;20200;-65
2021/06/28 13:10:38;;;;;;;5.40;2.93;;;;;;;;;;5118669;28;20197;-65
2021/06/28 13:13:19;;;;;;;4.77;3.70;;;;;;;;;;5104776;28;20557;-66
2021/06/28 13:16:02;;;;;;;4.27;3.87;;;;;;;;;;5118405;28;20210;-66
2021/06/28 13:18:29;;;;;;;4.47;3.50;;;;;;;;;;5114502;28;20212;-65
2021/06/28 13:20:57;;;;;;;5.10;3.50;;;;;;;;;;5114238;28;20254;-66
2021/06/28 13:23:25;;;;;;;5.33;3.27;;;;;;;;;;5117553;28;20233;-66
2021/06/28 13:25:53;;;;;;;4.00;3.53;;;;;;;;;;5117085;28;20211;-66
2021/06/28 13:28:24;;;;;;;7.00;4.10;;;;;;;;;;5118126;28;20218;-65
2021/06/28 13:30:59;;;;;;;9.57;3.57;;;;;;;;;;5117200;28;20242;-65
2021/06/28 13:33:26;;;;;;;5.70;3.73;;;;;;;;;;5117933;28;20234;-65
2021/06/28 13:35:54;;;;;;;6.07;3.60;;;;;;;;;;5116025;28;20205;-65
2021/06/28 13:38:22;;;;;;;3.67;3.47;;;;;;;;;;5112285;28;20242;-65
2021/06/28 13:41:00;;;;;;;6.17;4.07;;;;;;;;;;5117019;28;20228;-65
2021/06/28 13:43:29;;;;;;;5.67;3.43;;;;;;;;;;5116219;28;20648;-65
2021/06/28 13:45:57;;;;;;;5.87;4.53;;;;;;;;;;5117155;28;20208;-66
2021/06/28 13:48:26;;;;;;;4.30;3.90;;;;;;;;;;5115295;28;20256;-64
2021/06/28 13:50:53;;;;;;;6.60;4.00;;;;;;;;;;5111982;28;20193;-64
2021/06/28 13:53:25;;;;;;;4.47;3.87;;;;;;;;;;5115165;28;20233;-64
2021/06/28 13:55:56;;;;;;;4.23;3.83;;;;;;;;;;5115868;28;20706;-64
2021/06/28 13:58:24;;;;;;;4.90;3.70;;;;;;;;;;5110822;28;20233;-64
2021/06/28 14:00:54;;;;;;;4.30;3.90;;;;;;;;;;5116244;28;20219;-64
2021/06/28 14:03:22;;;;;;;5.50;4.00;;;;;;;;;;5113678;28;20730;-65
2021/06/28 14:05:49;;;;;;;5.63;4.00;;;;;;;;;;5115193;28;20204;-64
2021/06/28 14:08:18;;;;;;;4.60;3.97;;;;;;;;;;5104753;28;20207;-64
2021/06/28 14:10:48;;;;;;;6.37;3.37;;;;;;;;;;5115576;28;20200;-62
2021/06/28 14:13:17;;;;;;;6.50;3.53;;;;;;;;;;5112574;28;20229;-62
2021/06/28 14:15:46;;;;;;;4.60;4.10;;;;;;;;;;5114279;28;20199;-62
2021/06/28 14:18:15;;;;;;;5.57;3.93;;;;;;;;;;5115868;28;20207;-62
2021/06/28 14:20:44;;;;;;;5.93;4.03;;;;;;;;;;5116061;28;20291;-63
2021/06/28 14:23:12;;;;;;;5.93;4.70;;;;;;;;;;5116597;28;20265;-63
2021/06/28 14:25:41;;;;;;;5.67;5.13;;;;;;;;;;5106540;28;20206;-64
2021/06/28 14:28:09;;;;;;;8.00;4.73;;;;;;;;;;5117625;28;20206;-64
2021/06/28 14:30:36;;;;;;;5.83;4.53;;;;;;;;;;5118628;28;20621;-64
2021/06/28 14:33:06;;;;;;;5.20;4.73;;;;;;;;;;5119765;28;20230;-64
2021/06/28 14:35:35;;;;;;;5.33;4.37;;;;;;;;;;5120530;28;20670;-64
2021/06/28 14:38:04;;;;;;;8.07;5.13;;;;;;;;;;5119754;28;20321;-64
2021/06/28 14:40:33;;;;;;;4.40;4.00;;;;;;;;;;5118844;28;20238;-64
2021/06/28 14:43:02;;;;;;;5.33;4.60;;;;;;;;;;5120769;28;20235;-64
2021/06/28 14:45:29;;;;;;;5.10;4.50;;;;;;;;;;5119249;28;20202;-64
2021/06/28 14:47:57;;;;;;;6.97;5.03;;;;;;;;;;5118226;28;20200;-64
2021/06/28 14:50:25;;;;;;;5.37;4.80;;;;;;;;;;5119717;28;20200;-64
2021/06/28 14:52:54;;;;;;;6.83;4.77;;;;;;;;;;5111394;28;20275;-64
2021/06/28 14:55:22;;;;;;;7.03;4.60;;;;;;;;;;5119780;28;20205;-65